sensor_id;sensor_type;location;lat;lon;timestamp;temperature;humidity
17333;DHT22;8784;50.94667800;7.08448400;2023-02-28T00:00:14;2.10;84.40
17333;DHT22;8784;50.94667800;7.08448400;2023-02-28T00:02:42;2.10;84.50
17333;DHT22;8784;50.94667800;7.08448400;2023-02-28T00:05:12;2.10;84.50
17333;DHT22;8784;50.94667800;7.08448400;2023-02-28T00:07:40;2.00;84.70
17333;DHT22;8784;50.94667800;7.08448400;2023-02-28T00:10:10;2.00;84.70
17333;DHT22;8784;50.94667800;7.08448400;2023-02-28T00:12:38;2.00;84.80
17333;DHT22;8784;50.94667800;7.08448400;2023-02-28T00:15:06;2.00;84.80
17333;DHT22;8784;50.94667800;7.08448400;2023-02-28T00:17:34;1.90;84.90
17333;DHT22;8784;50.94667800;7.08448400;2023-02-28T00:20:01;1.90;85.10
17333;DHT22;8784;50.94667800;7.08448400;2023-02-28T00:22:40;1.90;85.00
17333;DHT22;8784;50.94667800;7.08448400;2023-02-28T00:25:08;1.90;85.10
17333;DHT22;8784;50.94667800;7.08448400;2023-02-28T00:27:36;1.80;85.10
17333;DHT22;8784;50.94667800;7.08448400;2023-02-28T00:30:06;1.70;85.20
17333;DHT22;8784;50.94667800;7.08448400;2023-02-28T00:32:35;1.70;85.40
17333;DHT22;8784;50.94667800;7.08448400;2023-02-28T00:35:03;1.80;85.50
17333;DHT22;8784;50.94667800;7.08448400;2023-02-28T00:37:30;1.70;85.50
17333;DHT22;8784;50.94667800;7.08448400;2023-02-28T00:39:59;1.70;85.50
17333;DHT22;8784;50.94667800;7.08448400;2023-02-28T00:42:26;1.70;85.70
17333;DHT22;8784;50.94667800;7.08448400;2023-02-28T00:44:54;2.00;85.80
17333;DHT22;8784;50.94667800;7.08448400;2023-02-28T00:47:21;1.70;85.60
17333;DHT22;8784;50.94667800;7.08448400;2023-02-28T00:49:48;1.70;85.70
17333;DHT22;8784;50.94667800;7.08448400;2023-02-28T00:52:15;1.70;86.00
17333;DHT22;8784;50.94667800;7.08448400;2023-02-28T00:54:42;1.70;85.90
17333;DHT22;8784;50.94667800;7.08448400;2023-02-28T00:57:10;1.70;86.10
17333;DHT22;8784;50.94667800;7.08448400;2023-02-28T00:59:37;1.80;86.20
17333;DHT22;8784;50.94667800;7.08448400;2023-02-28T01:02:04;1.70;86.40
17333;DHT22;8784;50.94667800;7.08448400;2023-02-28T01:04:31;1.70;86.20
17333;DHT22;8784;50.94667800;7.08448400;2023-02-28T01:06:58;1.80;87.00
17333;DHT22;8784;50.94667800;7.08448400;2023-02-28T01:09:25;1.60;86.30
17333;DHT22;8784;50.94667800;7.08448400;2023-02-28T01:11:52;1.20;86.20
17333;DHT22;8784;50.94667800;7.08448400;2023-02-28T01:14:22;1.40;86.40
17333;DHT22;8784;50.94667800;7.08448400;2023-02-28T01:16:49;1.60;86.70
17333;DHT22;8784;50.94667800;7.08448400;2023-02-28T01:19:17;1.70;86.80
17333;DHT22;8784;50.94667800;7.08448400;2023-02-28T01:21:44;1.60;86.70
17333;DHT22;8784;50.94667800;7.08448400;2023-02-28T01:24:11;1.60;86.80
17333;DHT22;8784;50.94667800;7.08448400;2023-02-28T01:26:38;1.60;87.00
17333;DHT22;8784;50.94667800;7.08448400;2023-02-28T01:29:05;1.60;86.90
17333;DHT22;8784;50.94667800;7.08448400;2023-02-28T01:31:33;1.50;86.90
17333;DHT22;8784;50.94667800;7.08448400;2023-02-28T01:34:00;1.50;87.00
17333;DHT22;8784;50.94667800;7.08448400;2023-02-28T01:36:27;1.50;87.00
17333;DHT22;8784;50.94667800;7.08448400;2023-02-28T01:38:54;1.50;87.20
17333;DHT22;8784;50.94667800;7.08448400;2023-02-28T01:41:24;1.50;87.30
17333;DHT22;8784;50.94667800;7.08448400;2023-02-28T01:43:57;1.50;87.30
17333;DHT22;8784;50.94667800;7.08448400;2023-02-28T01:46:27;1.50;87.50
17333;DHT22;8784;50.94667800;7.08448400;2023-02-28T01:49:00;1.90;88.60
17333;DHT22;8784;50.94667800;7.08448400;2023-02-28T01:51:32;2.60;89.10
17333;DHT22;8784;50.94667800;7.08448400;2023-02-28T01:54:02;1.60;87.90
17333;DHT22;8784;50.94667800;7.08448400;2023-02-28T01:56:33;1.60;87.90
17333;DHT22;8784;50.94667800;7.08448400;2023-02-28T01:59:03;1.60;88.20
17333;DHT22;8784;50.94667800;7.08448400;2023-02-28T02:01:30;2.00;88.30
17333;DHT22;8784;50.94667800;7.08448400;2023-02-28T02:04:02;1.70;88.10
17333;DHT22;8784;50.94667800;7.08448400;2023-02-28T02:06:34;1.60;88.00
17333;DHT22;8784;50.94667800;7.08448400;2023-02-28T02:09:02;1.60;88.30
17333;DHT22;8784;50.94667800;7.08448400;2023-02-28T02:11:30;1.50;88.30
17333;DHT22;8784;50.94667800;7.08448400;2023-02-28T02:14:17;1.60;88.50
17333;DHT22;8784;50.94667800;7.08448400;2023-02-28T02:17:00;1.60;88.50
17333;DHT22;8784;50.94667800;7.08448400;2023-02-28T02:19:53;1.60;88.70
17333;DHT22;8784;50.94667800;7.08448400;2023-02-28T02:23:01;2.40;89.20
17333;DHT22;8784;50.94667800;7.08448400;2023-02-28T02:25:35;1.50;88.70
17333;DHT22;8784;50.94667800;7.08448400;2023-02-28T02:28:35;1.40;88.90
17333;DHT22;8784;50.94667800;7.08448400;2023-02-28T02:31:31;1.40;89.00
17333;DHT22;8784;50.94667800;7.08448400;2023-02-28T02:37:25;2.00;89.60
17333;DHT22;8784;50.94667800;7.08448400;2023-02-28T02:40:02;2.10;89.70
17333;DHT22;8784;50.94667800;7.08448400;2023-02-28T02:42:36;1.20;89.30
17333;DHT22;8784;50.94667800;7.08448400;2023-02-28T02:45:09;1.40;89.40
17333;DHT22;8784;50.94667800;7.08448400;2023-02-28T02:47:39;1.40;89.50
17333;DHT22;8784;50.94667800;7.08448400;2023-02-28T02:50:12;1.30;89.60
17333;DHT22;8784;50.94667800;7.08448400;2023-02-28T02:52:44;1.30;89.60
17333;DHT22;8784;50.94667800;7.08448400;2023-02-28T02:55:13;1.30;89.70
17333;DHT22;8784;50.94667800;7.08448400;2023-02-28T02:57:45;2.10;90.10
17333;DHT22;8784;50.94667800;7.08448400;2023-02-28T03:00:16;1.30;89.90
17333;DHT22;8784;50.94667800;7.08448400;2023-02-28T03:02:45;1.30;89.90
17333;DHT22;8784;50.94667800;7.08448400;2023-02-28T03:05:20;1.40;89.90
17333;DHT22;8784;50.94667800;7.08448400;2023-02-28T03:07:49;1.30;90.30
17333;DHT22;8784;50.94667800;7.08448400;2023-02-28T03:10:29;1.30;90.00
17333;DHT22;8784;50.94667800;7.08448400;2023-02-28T03:13:08;1.30;89.90
17333;DHT22;8784;50.94667800;7.08448400;2023-02-28T03:15:48;1.30;90.30
17333;DHT22;8784;50.94667800;7.08448400;2023-02-28T03:18:26;1.30;90.00
17333;DHT22;8784;50.94667800;7.08448400;2023-02-28T03:21:02;1.30;90.00
17333;DHT22;8784;50.94667800;7.08448400;2023-02-28T03:23:40;1.20;90.00
17333;DHT22;8784;50.94667800;7.08448400;2023-02-28T03:26:16;1.20;90.00
17333;DHT22;8784;50.94667800;7.08448400;2023-02-28T03:28:51;1.20;90.00
17333;DHT22;8784;50.94667800;7.08448400;2023-02-28T03:31:22;1.20;90.10
17333;DHT22;8784;50.94667800;7.08448400;2023-02-28T03:33:58;1.20;90.10
17333;DHT22;8784;50.94667800;7.08448400;2023-02-28T03:36:29;1.10;90.10
17333;DHT22;8784;50.94667800;7.08448400;2023-02-28T03:38:59;1.30;90.20
17333;DHT22;8784;50.94667800;7.08448400;2023-02-28T03:41:35;1.20;90.20
17333;DHT22;8784;50.94667800;7.08448400;2023-02-28T03:44:07;1.20;90.20
17333;DHT22;8784;50.94667800;7.08448400;2023-02-28T03:46:44;1.10;90.10
17333;DHT22;8784;50.94667800;7.08448400;2023-02-28T03:49:16;1.20;90.10
17333;DHT22;8784;50.94667800;7.08448400;2023-02-28T03:51:46;1.10;90.00
17333;DHT22;8784;50.94667800;7.08448400;2023-02-28T03:54:18;1.30;90.10
17333;DHT22;8784;50.94667800;7.08448400;2023-02-28T03:56:50;1.10;90.00
17333;DHT22;8784;50.94667800;7.08448400;2023-02-28T03:59:26;1.10;90.00
17333;DHT22;8784;50.94667800;7.08448400;2023-02-28T04:01:57;1.10;90.00
17333;DHT22;8784;50.94667800;7.08448400;2023-02-28T04:04:26;1.20;90.00
17333;DHT22;8784;50.94667800;7.08448400;2023-02-28T04:07:01;1.50;90.00
17333;DHT22;8784;50.94667800;7.08448400;2023-02-28T04:09:30;1.20;89.90
17333;DHT22;8784;50.94667800;7.08448400;2023-02-28T04:11:57;1.10;89.80
17333;DHT22;8784;50.94667800;7.08448400;2023-02-28T04:14:24;1.10;89.90
17333;DHT22;8784;50.94667800;7.08448400;2023-02-28T04:16:52;1.20;89.70
17333;DHT22;8784;50.94667800;7.08448400;2023-02-28T04:19:19;1.10;89.70
17333;DHT22;8784;50.94667800;7.08448400;2023-02-28T04:21:48;1.20;89.70
17333;DHT22;8784;50.94667800;7.08448400;2023-02-28T04:24:17;1.20;89.60
17333;DHT22;8784;50.94667800;7.08448400;2023-02-28T04:26:47;0.90;89.40
17333;DHT22;8784;50.94667800;7.08448400;2023-02-28T04:29:19;1.10;89.50
17333;DHT22;8784;50.94667800;7.08448400;2023-02-28T04:31:46;1.10;89.70
17333;DHT22;8784;50.94667800;7.08448400;2023-02-28T04:34:13;1.10;89.70
17333;DHT22;8784;50.94667800;7.08448400;2023-02-28T04:36:41;1.00;89.70
17333;DHT22;8784;50.94667800;7.08448400;2023-02-28T04:39:08;1.10;89.90
17333;DHT22;8784;50.94667800;7.08448400;2023-02-28T04:41:36;1.00;89.80
17333;DHT22;8784;50.94667800;7.08448400;2023-02-28T04:44:04;1.00;90.00
17333;DHT22;8784;50.94667800;7.08448400;2023-02-28T04:46:32;1.00;90.00
17333;DHT22;8784;50.94667800;7.08448400;2023-02-28T04:48:59;1.00;90.00
17333;DHT22;8784;50.94667800;7.08448400;2023-02-28T04:51:26;1.20;90.00
17333;DHT22;8784;50.94667800;7.08448400;2023-02-28T04:53:53;1.00;90.00
17333;DHT22;8784;50.94667800;7.08448400;2023-02-28T04:56:22;1.10;90.00
17333;DHT22;8784;50.94667800;7.08448400;2023-02-28T04:58:49;1.00;90.00
17333;DHT22;8784;50.94667800;7.08448400;2023-02-28T05:01:23;1.00;90.10
17333;DHT22;8784;50.94667800;7.08448400;2023-02-28T05:03:54;1.00;90.10
17333;DHT22;8784;50.94667800;7.08448400;2023-02-28T05:06:23;1.00;90.00
17333;DHT22;8784;50.94667800;7.08448400;2023-02-28T05:08:53;1.10;90.10
17333;DHT22;8784;50.94667800;7.08448400;2023-02-28T05:11:24;1.00;90.00
17333;DHT22;8784;50.94667800;7.08448400;2023-02-28T05:13:54;1.00;90.00
17333;DHT22;8784;50.94667800;7.08448400;2023-02-28T05:16:26;0.90;90.00
17333;DHT22;8784;50.94667800;7.08448400;2023-02-28T05:18:53;0.80;89.90
17333;DHT22;8784;50.94667800;7.08448400;2023-02-28T05:21:26;0.80;90.00
17333;DHT22;8784;50.94667800;7.08448400;2023-02-28T05:23:54;0.70;90.00
17333;DHT22;8784;50.94667800;7.08448400;2023-02-28T05:26:28;0.70;90.00
17333;DHT22;8784;50.94667800;7.08448400;2023-02-28T05:28:56;0.70;90.00
17333;DHT22;8784;50.94667800;7.08448400;2023-02-28T05:31:27;0.70;90.00
17333;DHT22;8784;50.94667800;7.08448400;2023-02-28T05:33:54;0.80;90.00
17333;DHT22;8784;50.94667800;7.08448400;2023-02-28T05:36:24;0.80;90.00
17333;DHT22;8784;50.94667800;7.08448400;2023-02-28T05:38:52;1.20;90.10
17333;DHT22;8784;50.94667800;7.08448400;2023-02-28T05:41:20;0.90;90.00
17333;DHT22;8784;50.94667800;7.08448400;2023-02-28T05:43:47;0.80;90.10
17333;DHT22;8784;50.94667800;7.08448400;2023-02-28T05:46:15;0.80;90.00
17333;DHT22;8784;50.94667800;7.08448400;2023-02-28T05:48:47;0.90;90.00
17333;DHT22;8784;50.94667800;7.08448400;2023-02-28T05:51:14;0.90;90.00
17333;DHT22;8784;50.94667800;7.08448400;2023-02-28T05:53:41;0.90;90.10
17333;DHT22;8784;50.94667800;7.08448400;2023-02-28T05:56:08;0.90;90.10
17333;DHT22;8784;50.94667800;7.08448400;2023-02-28T05:58:35;0.80;90.10
17333;DHT22;8784;50.94667800;7.08448400;2023-02-28T06:01:21;0.90;90.10
17333;DHT22;8784;50.94667800;7.08448400;2023-02-28T06:03:49;0.90;90.10
17333;DHT22;8784;50.94667800;7.08448400;2023-02-28T06:06:16;1.30;90.30
17333;DHT22;8784;50.94667800;7.08448400;2023-02-28T06:08:43;0.50;90.10
17333;DHT22;8784;50.94667800;7.08448400;2023-02-28T06:11:11;0.90;90.20
17333;DHT22;8784;50.94667800;7.08448400;2023-02-28T06:13:38;1.60;90.40
17333;DHT22;8784;50.94667800;7.08448400;2023-02-28T06:16:06;0.90;90.20
17333;DHT22;8784;50.94667800;7.08448400;2023-02-28T06:18:33;0.90;90.20
17333;DHT22;8784;50.94667800;7.08448400;2023-02-28T06:21:04;1.00;90.30
17333;DHT22;8784;50.94667800;7.08448400;2023-02-28T06:23:34;0.90;90.30
17333;DHT22;8784;50.94667800;7.08448400;2023-02-28T06:26:01;0.90;90.30
17333;DHT22;8784;50.94667800;7.08448400;2023-02-28T06:28:28;0.90;90.30
17333;DHT22;8784;50.94667800;7.08448400;2023-02-28T06:30:56;0.90;90.30
17333;DHT22;8784;50.94667800;7.08448400;2023-02-28T06:33:23;0.90;90.20
17333;DHT22;8784;50.94667800;7.08448400;2023-02-28T06:35:51;0.90;90.30
17333;DHT22;8784;50.94667800;7.08448400;2023-02-28T06:38:20;0.80;90.30
17333;DHT22;8784;50.94667800;7.08448400;2023-02-28T06:40:53;0.80;90.20
17333;DHT22;8784;50.94667800;7.08448400;2023-02-28T06:43:23;0.90;90.20
17333;DHT22;8784;50.94667800;7.08448400;2023-02-28T06:45:54;0.80;90.30
17333;DHT22;8784;50.94667800;7.08448400;2023-02-28T06:48:22;0.90;90.20
17333;DHT22;8784;50.94667800;7.08448400;2023-02-28T06:50:49;0.90;90.20
17333;DHT22;8784;50.94667800;7.08448400;2023-02-28T06:53:16;0.90;90.20
17333;DHT22;8784;50.94667800;7.08448400;2023-02-28T06:55:44;1.00;90.20
17333;DHT22;8784;50.94667800;7.08448400;2023-02-28T06:58:11;1.10;90.20
17333;DHT22;8784;50.94667800;7.08448400;2023-02-28T07:00:44;1.10;90.20
17333;DHT22;8784;50.94667800;7.08448400;2023-02-28T07:03:13;1.30;90.20
17333;DHT22;8784;50.94667800;7.08448400;2023-02-28T07:05:43;1.40;90.10
17333;DHT22;8784;50.94667800;7.08448400;2023-02-28T07:08:11;1.50;90.00
17333;DHT22;8784;50.94667800;7.08448400;2023-02-28T07:10:38;1.50;89.70
17333;DHT22;8784;50.94667800;7.08448400;2023-02-28T07:13:08;1.70;89.70
17333;DHT22;8784;50.94667800;7.08448400;2023-02-28T07:15:36;1.80;89.40
17333;DHT22;8784;50.94667800;7.08448400;2023-02-28T07:18:04;1.90;89.30
17333;DHT22;8784;50.94667800;7.08448400;2023-02-28T07:20:31;2.00;88.70
17333;DHT22;8784;50.94667800;7.08448400;2023-02-28T07:22:58;2.10;88.30
17333;DHT22;8784;50.94667800;7.08448400;2023-02-28T07:25:28;2.20;88.30
17333;DHT22;8784;50.94667800;7.08448400;2023-02-28T07:27:57;2.30;87.80
17333;DHT22;8784;50.94667800;7.08448400;2023-02-28T07:30:27;2.40;87.80
17333;DHT22;8784;50.94667800;7.08448400;2023-02-28T07:32:54;2.50;87.30
17333;DHT22;8784;50.94667800;7.08448400;2023-02-28T07:35:24;2.60;87.00
17333;DHT22;8784;50.94667800;7.08448400;2023-02-28T07:37:54;2.80;86.70
17333;DHT22;8784;50.94667800;7.08448400;2023-02-28T07:40:26;2.80;86.50
17333;DHT22;8784;50.94667800;7.08448400;2023-02-28T07:42:54;2.90;86.10
17333;DHT22;8784;50.94667800;7.08448400;2023-02-28T07:45:22;3.00;86.20
17333;DHT22;8784;50.94667800;7.08448400;2023-02-28T07:47:51;3.10;85.70
17333;DHT22;8784;50.94667800;7.08448400;2023-02-28T07:50:19;3.20;85.40
17333;DHT22;8784;50.94667800;7.08448400;2023-02-28T07:52:46;3.30;85.10
17333;DHT22;8784;50.94667800;7.08448400;2023-02-28T07:55:13;3.40;84.80
17333;DHT22;8784;50.94667800;7.08448400;2023-02-28T07:57:42;3.50;84.50
17333;DHT22;8784;50.94667800;7.08448400;2023-02-28T08:00:11;3.60;83.90
17333;DHT22;8784;50.94667800;7.08448400;2023-02-28T08:02:39;3.70;83.50
17333;DHT22;8784;50.94667800;7.08448400;2023-02-28T08:05:08;3.80;83.40
17333;DHT22;8784;50.94667800;7.08448400;2023-02-28T08:07:36;3.90;82.90
17333;DHT22;8784;50.94667800;7.08448400;2023-02-28T08:10:04;3.90;82.20
17333;DHT22;8784;50.94667800;7.08448400;2023-02-28T08:12:31;4.00;82.10
17333;DHT22;8784;50.94667800;7.08448400;2023-02-28T08:14:59;4.10;82.10
17333;DHT22;8784;50.94667800;7.08448400;2023-02-28T08:17:27;4.20;81.90
17333;DHT22;8784;50.94667800;7.08448400;2023-02-28T08:19:54;4.30;81.00
17333;DHT22;8784;50.94667800;7.08448400;2023-02-28T08:22:28;4.40;81.00
17333;DHT22;8784;50.94667800;7.08448400;2023-02-28T08:24:56;4.40;80.40
17333;DHT22;8784;50.94667800;7.08448400;2023-02-28T08:27:24;4.50;79.90
17333;DHT22;8784;50.94667800;7.08448400;2023-02-28T08:29:53;4.60;79.20
17333;DHT22;8784;50.94667800;7.08448400;2023-02-28T08:32:20;4.70;79.40
17333;DHT22;8784;50.94667800;7.08448400;2023-02-28T08:34:47;4.80;79.00
17333;DHT22;8784;50.94667800;7.08448400;2023-02-28T08:37:14;4.90;78.10
17333;DHT22;8784;50.94667800;7.08448400;2023-02-28T08:39:43;5.00;77.20
17333;DHT22;8784;50.94667800;7.08448400;2023-02-28T08:42:11;5.10;77.10
17333;DHT22;8784;50.94667800;7.08448400;2023-02-28T08:44:38;5.00;76.60
17333;DHT22;8784;50.94667800;7.08448400;2023-02-28T08:47:06;5.10;76.70
17333;DHT22;8784;50.94667800;7.08448400;2023-02-28T08:49:33;5.20;76.20
17333;DHT22;8784;50.94667800;7.08448400;2023-02-28T08:52:00;5.20;75.90
17333;DHT22;8784;50.94667800;7.08448400;2023-02-28T08:54:27;5.20;76.00
17333;DHT22;8784;50.94667800;7.08448400;2023-02-28T08:57:01;5.30;75.20
17333;DHT22;8784;50.94667800;7.08448400;2023-02-28T08:59:29;5.30;74.80
17333;DHT22;8784;50.94667800;7.08448400;2023-02-28T09:01:57;5.40;71.60
17333;DHT22;8784;50.94667800;7.08448400;2023-02-28T09:04:26;5.40;73.50
17333;DHT22;8784;50.94667800;7.08448400;2023-02-28T09:06:59;5.60;73.80
17333;DHT22;8784;50.94667800;7.08448400;2023-02-28T09:09:26;5.70;73.30
17333;DHT22;8784;50.94667800;7.08448400;2023-02-28T09:11:56;5.80;72.90
17333;DHT22;8784;50.94667800;7.08448400;2023-02-28T09:14:27;5.90;71.40
17333;DHT22;8784;50.94667800;7.08448400;2023-02-28T09:16:54;6.00;70.20
17333;DHT22;8784;50.94667800;7.08448400;2023-02-28T09:19:22;6.10;70.50
17333;DHT22;8784;50.94667800;7.08448400;2023-02-28T09:21:51;6.20;69.60
17333;DHT22;8784;50.94667800;7.08448400;2023-02-28T09:24:19;6.10;68.00
17333;DHT22;8784;50.94667800;7.08448400;2023-02-28T09:26:47;6.30;69.70
17333;DHT22;8784;50.94667800;7.08448400;2023-02-28T09:29:14;6.50;68.10
17333;DHT22;8784;50.94667800;7.08448400;2023-02-28T09:31:44;6.50;68.30
17333;DHT22;8784;50.94667800;7.08448400;2023-02-28T09:34:12;6.70;69.20
17333;DHT22;8784;50.94667800;7.08448400;2023-02-28T09:36:39;7.00;68.60
17333;DHT22;8784;50.94667800;7.08448400;2023-02-28T09:39:07;8.10;68.90
17333;DHT22;8784;50.94667800;7.08448400;2023-02-28T09:41:38;7.30;66.50
17333;DHT22;8784;50.94667800;7.08448400;2023-02-28T09:44:17;7.30;66.40
17333;DHT22;8784;50.94667800;7.08448400;2023-02-28T09:46:50;7.40;66.70
17333;DHT22;8784;50.94667800;7.08448400;2023-02-28T09:49:22;7.80;67.10
17333;DHT22;8784;50.94667800;7.08448400;2023-02-28T09:51:55;8.20;67.30
17333;DHT22;8784;50.94667800;7.08448400;2023-02-28T09:54:28;8.60;66.50
17333;DHT22;8784;50.94667800;7.08448400;2023-02-28T09:56:59;9.10;66.10
17333;DHT22;8784;50.94667800;7.08448400;2023-02-28T09:59:49;9.70;65.90
17333;DHT22;8784;50.94667800;7.08448400;2023-02-28T10:05:21;10.40;64.10
17333;DHT22;8784;50.94667800;7.08448400;2023-02-28T10:08:03;11.40;63.40
17333;DHT22;8784;50.94667800;7.08448400;2023-02-28T10:10:37;12.50;63.10
17333;DHT22;8784;50.94667800;7.08448400;2023-02-28T10:13:12;13.20;62.10
17333;DHT22;8784;50.94667800;7.08448400;2023-02-28T10:15:40;14.10;61.50
17333;DHT22;8784;50.94667800;7.08448400;2023-02-28T10:21:03;14.20;58.30
17333;DHT22;8784;50.94667800;7.08448400;2023-02-28T10:23:34;16.20;56.40
17333;DHT22;8784;50.94667800;7.08448400;2023-02-28T10:26:10;16.60;56.00
17333;DHT22;8784;50.94667800;7.08448400;2023-02-28T10:28:39;17.60;56.50
17333;DHT22;8784;50.94667800;7.08448400;2023-02-28T10:31:08;16.60;55.20
17333;DHT22;8784;50.94667800;7.08448400;2023-02-28T10:33:38;16.00;55.80
17333;DHT22;8784;50.94667800;7.08448400;2023-02-28T10:36:13;15.20;54.50
17333;DHT22;8784;50.94667800;7.08448400;2023-02-28T10:38:42;14.30;55.80
17333;DHT22;8784;50.94667800;7.08448400;2023-02-28T10:41:11;13.40;55.60
17333;DHT22;8784;50.94667800;7.08448400;2023-02-28T10:43:40;13.00;57.00
17333;DHT22;8784;50.94667800;7.08448400;2023-02-28T10:46:13;12.40;55.90
17333;DHT22;8784;50.94667800;7.08448400;2023-02-28T10:48:43;11.80;57.20
17333;DHT22;8784;50.94667800;7.08448400;2023-02-28T10:51:13;11.50;56.80
17333;DHT22;8784;50.94667800;7.08448400;2023-02-28T10:53:47;11.30;57.80
17333;DHT22;8784;50.94667800;7.08448400;2023-02-28T10:56:19;11.00;56.20
17333;DHT22;8784;50.94667800;7.08448400;2023-02-28T10:58:50;10.30;56.90
17333;DHT22;8784;50.94667800;7.08448400;2023-02-28T11:01:19;9.80;56.50
17333;DHT22;8784;50.94667800;7.08448400;2023-02-28T11:03:47;9.80;58.00
17333;DHT22;8784;50.94667800;7.08448400;2023-02-28T11:06:18;9.70;57.90
17333;DHT22;8784;50.94667800;7.08448400;2023-02-28T11:08:49;9.30;56.40
17333;DHT22;8784;50.94667800;7.08448400;2023-02-28T11:11:17;9.00;57.30
17333;DHT22;8784;50.94667800;7.08448400;2023-02-28T11:13:46;8.70;56.00
17333;DHT22;8784;50.94667800;7.08448400;2023-02-28T11:16:15;8.40;57.50
17333;DHT22;8784;50.94667800;7.08448400;2023-02-28T11:18:46;8.40;57.90
17333;DHT22;8784;50.94667800;7.08448400;2023-02-28T11:21:24;8.20;57.40
17333;DHT22;8784;50.94667800;7.08448400;2023-02-28T11:23:59;8.10;57.80
17333;DHT22;8784;50.94667800;7.08448400;2023-02-28T11:26:39;8.00;57.90
17333;DHT22;8784;50.94667800;7.08448400;2023-02-28T11:29:18;8.00;57.60
17333;DHT22;8784;50.94667800;7.08448400;2023-02-28T11:32:11;7.90;57.50
17333;DHT22;8784;50.94667800;7.08448400;2023-02-28T11:34:40;7.70;57.90
17333;DHT22;8784;50.94667800;7.08448400;2023-02-28T11:37:13;7.80;58.50
17333;DHT22;8784;50.94667800;7.08448400;2023-02-28T11:39:40;7.70;57.60
17333;DHT22;8784;50.94667800;7.08448400;2023-02-28T11:42:24;7.70;58.40
17333;DHT22;8784;50.94667800;7.08448400;2023-02-28T11:45:08;7.80;58.40
17333;DHT22;8784;50.94667800;7.08448400;2023-02-28T11:47:45;7.90;58.30
17333;DHT22;8784;50.94667800;7.08448400;2023-02-28T11:50:33;7.90;58.10
17333;DHT22;8784;50.94667800;7.08448400;2023-02-28T11:53:14;7.90;59.30
17333;DHT22;8784;50.94667800;7.08448400;2023-02-28T11:55:46;8.00;58.90
17333;DHT22;8784;50.94667800;7.08448400;2023-02-28T11:58:29;8.00;58.60
17333;DHT22;8784;50.94667800;7.08448400;2023-02-28T12:01:09;8.10;58.90
17333;DHT22;8784;50.94667800;7.08448400;2023-02-28T12:03:45;8.30;58.90
17333;DHT22;8784;50.94667800;7.08448400;2023-02-28T12:06:20;8.40;59.00
17333;DHT22;8784;50.94667800;7.08448400;2023-02-28T12:08:58;8.60;59.10
17333;DHT22;8784;50.94667800;7.08448400;2023-02-28T12:11:40;8.70;58.70
17333;DHT22;8784;50.94667800;7.08448400;2023-02-28T12:14:30;8.80;58.80
17333;DHT22;8784;50.94667800;7.08448400;2023-02-28T12:17:06;8.80;57.30
17333;DHT22;8784;50.94667800;7.08448400;2023-02-28T12:19:44;8.70;57.50
17333;DHT22;8784;50.94667800;7.08448400;2023-02-28T12:22:29;8.60;57.70
17333;DHT22;8784;50.94667800;7.08448400;2023-02-28T12:25:35;8.50;57.90
17333;DHT22;8784;50.94667800;7.08448400;2023-02-28T12:28:08;8.60;57.90
17333;DHT22;8784;50.94667800;7.08448400;2023-02-28T12:30:48;8.60;58.20
17333;DHT22;8784;50.94667800;7.08448400;2023-02-28T12:33:18;8.70;58.30
17333;DHT22;8784;50.94667800;7.08448400;2023-02-28T12:35:51;8.80;58.50
17333;DHT22;8784;50.94667800;7.08448400;2023-02-28T12:38:22;8.80;57.90
17333;DHT22;8784;50.94667800;7.08448400;2023-02-28T12:40:54;8.80;58.10
17333;DHT22;8784;50.94667800;7.08448400;2023-02-28T12:43:27;8.70;58.20
17333;DHT22;8784;50.94667800;7.08448400;2023-02-28T12:46:00;8.50;57.50
17333;DHT22;8784;50.94667800;7.08448400;2023-02-28T12:48:33;8.40;58.50
17333;DHT22;8784;50.94667800;7.08448400;2023-02-28T12:51:06;8.30;58.50
17333;DHT22;8784;50.94667800;7.08448400;2023-02-28T12:53:47;8.20;58.50
17333;DHT22;8784;50.94667800;7.08448400;2023-02-28T12:56:21;8.00;58.40
17333;DHT22;8784;50.94667800;7.08448400;2023-02-28T12:58:55;8.00;58.90
17333;DHT22;8784;50.94667800;7.08448400;2023-02-28T13:01:42;8.10;59.10
17333;DHT22;8784;50.94667800;7.08448400;2023-02-28T13:07:23;8.20;59.00
17333;DHT22;8784;50.94667800;7.08448400;2023-02-28T13:09:58;8.20;58.80
17333;DHT22;8784;50.94667800;7.08448400;2023-02-28T13:12:28;8.20;58.90
17333;DHT22;8784;50.94667800;7.08448400;2023-02-28T13:15:04;8.20;58.90
17333;DHT22;8784;50.94667800;7.08448400;2023-02-28T13:17:38;8.20;58.70
17333;DHT22;8784;50.94667800;7.08448400;2023-02-28T13:20:16;8.10;58.80
17333;DHT22;8784;50.94667800;7.08448400;2023-02-28T13:22:45;8.20;59.20
17333;DHT22;8784;50.94667800;7.08448400;2023-02-28T13:34:40;8.50;58.00
17333;DHT22;8784;50.94667800;7.08448400;2023-02-28T13:37:32;8.50;57.70
17333;DHT22;8784;50.94667800;7.08448400;2023-02-28T13:42:49;8.20;57.50
17333;DHT22;8784;50.94667800;7.08448400;2023-02-28T13:45:26;8.00;57.80
17333;DHT22;8784;50.94667800;7.08448400;2023-02-28T13:48:00;8.10;58.30
17333;DHT22;8784;50.94667800;7.08448400;2023-02-28T13:50:30;8.00;58.40
17333;DHT22;8784;50.94667800;7.08448400;2023-02-28T13:53:39;8.10;59.10
17333;DHT22;8784;50.94667800;7.08448400;2023-02-28T13:56:22;8.30;59.30
17333;DHT22;8784;50.94667800;7.08448400;2023-02-28T13:58:55;8.30;58.30
17333;DHT22;8784;50.94667800;7.08448400;2023-02-28T14:01:42;8.20;58.30
17333;DHT22;8784;50.94667800;7.08448400;2023-02-28T14:04:40;8.10;57.50
17333;DHT22;8784;50.94667800;7.08448400;2023-02-28T14:07:16;7.90;58.40
17333;DHT22;8784;50.94667800;7.08448400;2023-02-28T14:09:48;8.00;58.80
17333;DHT22;8784;50.94667800;7.08448400;2023-02-28T14:12:52;8.10;59.00
17333;DHT22;8784;50.94667800;7.08448400;2023-02-28T14:15:38;8.10;59.10
17333;DHT22;8784;50.94667800;7.08448400;2023-02-28T14:18:14;8.10;58.20
17333;DHT22;8784;50.94667800;7.08448400;2023-02-28T14:20:44;8.20;58.90
17333;DHT22;8784;50.94667800;7.08448400;2023-02-28T14:26:03;8.00;58.80
17333;DHT22;8784;50.94667800;7.08448400;2023-02-28T14:28:47;8.10;58.80
17333;DHT22;8784;50.94667800;7.08448400;2023-02-28T14:31:21;8.10;59.10
17333;DHT22;8784;50.94667800;7.08448400;2023-02-28T14:34:12;8.10;59.00
17333;DHT22;8784;50.94667800;7.08448400;2023-02-28T14:36:42;8.20;59.20